Terminal Aerodrome Forecast
Issued by NWS Tuscon, AZ

Home | Current Version | Previous Version | Text Only | Print | Product List | Glossary On
Versions: 1 2 3 4 5 6 7 8 9 10 11 12 13 14 15 16 17 18 19 20
000
FTUS45 KTWC 300520
TAFTUS
TAF
KTUS 300520Z 3006/3106 14007KT P6SM SCT070 BKN150 BKN250
     FM301900 30006KT P6SM SCT080 SCT150 SCT200
     FM302200 28009KT P6SM VCSH SCT080 BKN200
     FM310300 16005KT P6SM FEW080 BKN150 BKN200=

USA.gov is the U.S. government's official web portal to all federal, state and local government web resources and services.